sensor_id;sensor_type;location;lat;lon;timestamp;P1;durP1;ratioP1;P2;durP2;ratioP2
6834;SDS011;3455;42.150;24.734;2022-10-16T00:01:31;7.70;;;6.27;;
6834;SDS011;3455;42.150;24.734;2022-10-16T00:03:58;7.50;;;6.90;;
6834;SDS011;3455;42.150;24.734;2022-10-16T00:06:27;7.63;;;6.77;;
6834;SDS011;3455;42.150;24.734;2022-10-16T00:08:54;9.10;;;7.47;;
6834;SDS011;3455;42.150;24.734;2022-10-16T00:11:23;8.30;;;7.17;;
6834;SDS011;3455;42.150;24.734;2022-10-16T00:13:52;10.90;;;7.40;;
6834;SDS011;3455;42.150;24.734;2022-10-16T00:16:22;7.67;;;6.90;;
6834;SDS011;3455;42.150;24.734;2022-10-16T00:18:48;8.27;;;7.33;;
6834;SDS011;3455;42.150;24.734;2022-10-16T00:21:16;8.70;;;6.57;;
6834;SDS011;3455;42.150;24.734;2022-10-16T00:23:45;10.57;;;7.43;;
6834;SDS011;3455;42.150;24.734;2022-10-16T00:26:13;7.73;;;7.00;;
6834;SDS011;3455;42.150;24.734;2022-10-16T00:28:44;7.93;;;7.27;;
6834;SDS011;3455;42.150;24.734;2022-10-16T00:31:11;7.30;;;6.60;;
6834;SDS011;3455;42.150;24.734;2022-10-16T00:33:39;7.57;;;6.87;;
6834;SDS011;3455;42.150;24.734;2022-10-16T00:36:07;7.97;;;7.20;;
6834;SDS011;3455;42.150;24.734;2022-10-16T00:38:35;9.37;;;6.97;;
6834;SDS011;3455;42.150;24.734;2022-10-16T00:41:02;8.97;;;8.07;;
6834;SDS011;3455;42.150;24.734;2022-10-16T00:43:34;8.83;;;7.87;;
6834;SDS011;3455;42.150;24.734;2022-10-16T00:46:07;11.07;;;7.57;;
6834;SDS011;3455;42.150;24.734;2022-10-16T00:48:39;8.93;;;7.80;;
6834;SDS011;3455;42.150;24.734;2022-10-16T00:51:06;13.13;;;9.60;;
6834;SDS011;3455;42.150;24.734;2022-10-16T00:53:34;9.03;;;8.03;;
6834;SDS011;3455;42.150;24.734;2022-10-16T00:56:02;9.03;;;8.33;;
6834;SDS011;3455;42.150;24.734;2022-10-16T00:58:29;8.80;;;8.20;;
6834;SDS011;3455;42.150;24.734;2022-10-16T01:00:56;9.40;;;8.40;;
6834;SDS011;3455;42.150;24.734;2022-10-16T01:03:26;10.37;;;8.17;;
6834;SDS011;3455;42.150;24.734;2022-10-16T01:06:00;10.33;;;8.70;;
6834;SDS011;3455;42.150;24.734;2022-10-16T01:08:37;9.87;;;8.70;;
6834;SDS011;3455;42.150;24.734;2022-10-16T01:11:12;10.13;;;8.83;;
6834;SDS011;3455;42.150;24.734;2022-10-16T01:13:51;18.97;;;9.07;;
6834;SDS011;3455;42.150;24.734;2022-10-16T01:16:27;11.30;;;8.67;;
6834;SDS011;3455;42.150;24.734;2022-10-16T01:19:04;11.63;;;9.10;;
6834;SDS011;3455;42.150;24.734;2022-10-16T01:21:41;9.97;;;8.93;;
6834;SDS011;3455;42.150;24.734;2022-10-16T01:24:15;11.53;;;8.23;;
6834;SDS011;3455;42.150;24.734;2022-10-16T01:27:10;8.30;;;7.50;;
6834;SDS011;3455;42.150;24.734;2022-10-16T01:29:48;9.17;;;8.47;;
6834;SDS011;3455;42.150;24.734;2022-10-16T01:32:20;9.87;;;8.83;;
6834;SDS011;3455;42.150;24.734;2022-10-16T01:34:58;14.63;;;9.60;;
6834;SDS011;3455;42.150;24.734;2022-10-16T01:37:32;9.77;;;8.87;;
6834;SDS011;3455;42.150;24.734;2022-10-16T01:40:07;10.60;;;8.90;;
6834;SDS011;3455;42.150;24.734;2022-10-16T01:42:48;14.43;;;10.23;;
6834;SDS011;3455;42.150;24.734;2022-10-16T01:45:21;11.33;;;10.00;;
6834;SDS011;3455;42.150;24.734;2022-10-16T01:47:51;10.83;;;9.67;;
6834;SDS011;3455;42.150;24.734;2022-10-16T01:50:25;11.40;;;10.37;;
6834;SDS011;3455;42.150;24.734;2022-10-16T01:52:54;15.33;;;10.23;;
6834;SDS011;3455;42.150;24.734;2022-10-16T01:55:24;15.87;;;9.40;;
6834;SDS011;3455;42.150;24.734;2022-10-16T01:57:58;14.50;;;9.53;;
6834;SDS011;3455;42.150;24.734;2022-10-16T02:00:27;10.13;;;9.17;;
6834;SDS011;3455;42.150;24.734;2022-10-16T02:02:56;10.77;;;9.60;;
6834;SDS011;3455;42.150;24.734;2022-10-16T02:05:28;9.70;;;8.80;;
6834;SDS011;3455;42.150;24.734;2022-10-16T02:08:00;8.90;;;8.00;;
6834;SDS011;3455;42.150;24.734;2022-10-16T02:10:27;10.23;;;8.70;;
6834;SDS011;3455;42.150;24.734;2022-10-16T02:12:58;9.77;;;8.90;;
6834;SDS011;3455;42.150;24.734;2022-10-16T02:15:29;10.30;;;9.47;;
6834;SDS011;3455;42.150;24.734;2022-10-16T02:17:56;11.17;;;8.57;;
6834;SDS011;3455;42.150;24.734;2022-10-16T02:20:25;9.70;;;8.87;;
6834;SDS011;3455;42.150;24.734;2022-10-16T02:22:53;11.87;;;9.23;;
6834;SDS011;3455;42.150;24.734;2022-10-16T02:25:24;10.07;;;9.23;;
6834;SDS011;3455;42.150;24.734;2022-10-16T02:27:57;12.73;;;10.30;;
6834;SDS011;3455;42.150;24.734;2022-10-16T02:30:29;12.27;;;10.50;;
6834;SDS011;3455;42.150;24.734;2022-10-16T02:33:00;13.57;;;10.70;;
6834;SDS011;3455;42.150;24.734;2022-10-16T02:35:31;13.80;;;12.53;;
6834;SDS011;3455;42.150;24.734;2022-10-16T02:37:58;17.10;;;14.03;;
6834;SDS011;3455;42.150;24.734;2022-10-16T02:40:25;20.80;;;16.93;;
6834;SDS011;3455;42.150;24.734;2022-10-16T02:42:54;19.30;;;17.00;;
6834;SDS011;3455;42.150;24.734;2022-10-16T02:45:23;24.97;;;20.00;;
6834;SDS011;3455;42.150;24.734;2022-10-16T02:47:50;22.13;;;18.47;;
6834;SDS011;3455;42.150;24.734;2022-10-16T02:50:17;22.07;;;19.77;;
6834;SDS011;3455;42.150;24.734;2022-10-16T02:52:44;21.83;;;19.03;;
6834;SDS011;3455;42.150;24.734;2022-10-16T02:55:10;25.03;;;19.53;;
6834;SDS011;3455;42.150;24.734;2022-10-16T02:57:37;24.53;;;18.63;;
6834;SDS011;3455;42.150;24.734;2022-10-16T03:00:05;21.53;;;17.93;;
6834;SDS011;3455;42.150;24.734;2022-10-16T03:02:34;21.50;;;17.30;;
6834;SDS011;3455;42.150;24.734;2022-10-16T03:05:01;18.97;;;15.23;;
6834;SDS011;3455;42.150;24.734;2022-10-16T03:07:28;15.77;;;14.17;;
6834;SDS011;3455;42.150;24.734;2022-10-16T03:09:55;22.17;;;14.93;;
6834;SDS011;3455;42.150;24.734;2022-10-16T03:12:21;24.27;;;15.57;;
6834;SDS011;3455;42.150;24.734;2022-10-16T03:14:48;17.43;;;14.80;;
6834;SDS011;3455;42.150;24.734;2022-10-16T03:17:15;17.17;;;15.57;;
6834;SDS011;3455;42.150;24.734;2022-10-16T03:19:43;16.03;;;13.43;;
6834;SDS011;3455;42.150;24.734;2022-10-16T03:22:10;14.67;;;13.37;;
6834;SDS011;3455;42.150;24.734;2022-10-16T03:24:37;14.37;;;13.07;;
6834;SDS011;3455;42.150;24.734;2022-10-16T03:27:04;13.43;;;12.03;;
6834;SDS011;3455;42.150;24.734;2022-10-16T03:29:30;13.97;;;12.67;;
6834;SDS011;3455;42.150;24.734;2022-10-16T03:31:58;14.47;;;12.37;;
6834;SDS011;3455;42.150;24.734;2022-10-16T03:34:25;18.47;;;12.30;;
6834;SDS011;3455;42.150;24.734;2022-10-16T03:36:53;17.70;;;12.73;;
6834;SDS011;3455;42.150;24.734;2022-10-16T03:39:19;14.87;;;13.13;;
6834;SDS011;3455;42.150;24.734;2022-10-16T03:41:46;15.37;;;13.43;;
6834;SDS011;3455;42.150;24.734;2022-10-16T03:44:13;16.33;;;12.30;;
6834;SDS011;3455;42.150;24.734;2022-10-16T03:46:40;15.90;;;11.57;;
6834;SDS011;3455;42.150;24.734;2022-10-16T03:49:07;13.53;;;11.03;;
6834;SDS011;3455;42.150;24.734;2022-10-16T03:51:34;11.90;;;10.80;;
6834;SDS011;3455;42.150;24.734;2022-10-16T03:54:02;16.17;;;12.10;;
6834;SDS011;3455;42.150;24.734;2022-10-16T03:56:29;11.77;;;10.67;;
6834;SDS011;3455;42.150;24.734;2022-10-16T03:58:55;13.93;;;10.63;;
6834;SDS011;3455;42.150;24.734;2022-10-16T04:01:22;12.30;;;11.00;;
6834;SDS011;3455;42.150;24.734;2022-10-16T04:03:49;13.53;;;11.03;;
6834;SDS011;3455;42.150;24.734;2022-10-16T04:06:16;12.27;;;11.10;;
6834;SDS011;3455;42.150;24.734;2022-10-16T04:08:42;14.17;;;12.73;;
6834;SDS011;3455;42.150;24.734;2022-10-16T04:11:11;13.13;;;11.80;;
6834;SDS011;3455;42.150;24.734;2022-10-16T04:13:38;13.43;;;12.03;;
6834;SDS011;3455;42.150;24.734;2022-10-16T04:16:04;12.67;;;11.67;;
6834;SDS011;3455;42.150;24.734;2022-10-16T04:18:31;13.77;;;12.30;;
6834;SDS011;3455;42.150;24.734;2022-10-16T04:21:01;13.07;;;11.90;;
6834;SDS011;3455;42.150;24.734;2022-10-16T04:23:29;13.20;;;11.53;;
6834;SDS011;3455;42.150;24.734;2022-10-16T04:25:55;12.83;;;11.53;;
6834;SDS011;3455;42.150;24.734;2022-10-16T04:28:23;13.13;;;11.87;;
6834;SDS011;3455;42.150;24.734;2022-10-16T04:30:50;13.73;;;11.53;;
6834;SDS011;3455;42.150;24.734;2022-10-16T04:33:17;14.83;;;12.57;;
6834;SDS011;3455;42.150;24.734;2022-10-16T04:35:44;13.23;;;11.87;;
6834;SDS011;3455;42.150;24.734;2022-10-16T04:38:10;13.43;;;12.20;;
6834;SDS011;3455;42.150;24.734;2022-10-16T04:40:37;17.23;;;15.43;;
6834;SDS011;3455;42.150;24.734;2022-10-16T04:43:04;17.30;;;15.50;;
6834;SDS011;3455;42.150;24.734;2022-10-16T04:45:33;19.87;;;13.17;;
6834;SDS011;3455;42.150;24.734;2022-10-16T04:48:00;17.23;;;14.87;;
6834;SDS011;3455;42.150;24.734;2022-10-16T04:50:27;16.13;;;14.63;;
6834;SDS011;3455;42.150;24.734;2022-10-16T04:52:53;21.87;;;15.53;;
6834;SDS011;3455;42.150;24.734;2022-10-16T04:55:20;18.00;;;15.47;;
6834;SDS011;3455;42.150;24.734;2022-10-16T04:57:47;16.63;;;14.67;;
6834;SDS011;3455;42.150;24.734;2022-10-16T05:00:14;17.00;;;15.50;;
6834;SDS011;3455;42.150;24.734;2022-10-16T05:02:43;17.93;;;15.47;;
6834;SDS011;3455;42.150;24.734;2022-10-16T05:05:09;17.70;;;14.80;;
6834;SDS011;3455;42.150;24.734;2022-10-16T05:07:36;16.27;;;14.77;;
6834;SDS011;3455;42.150;24.734;2022-10-16T05:10:03;20.27;;;15.97;;
6834;SDS011;3455;42.150;24.734;2022-10-16T05:12:31;18.20;;;16.20;;
6834;SDS011;3455;42.150;24.734;2022-10-16T05:14:58;19.63;;;15.17;;
6834;SDS011;3455;42.150;24.734;2022-10-16T05:17:24;19.63;;;14.47;;
6834;SDS011;3455;42.150;24.734;2022-10-16T05:19:53;27.27;;;16.20;;
6834;SDS011;3455;42.150;24.734;2022-10-16T05:22:19;17.37;;;14.93;;
6834;SDS011;3455;42.150;24.734;2022-10-16T05:24:46;14.73;;;13.10;;
6834;SDS011;3455;42.150;24.734;2022-10-16T05:27:13;19.27;;;12.70;;
6834;SDS011;3455;42.150;24.734;2022-10-16T05:29:44;14.17;;;11.43;;
6834;SDS011;3455;42.150;24.734;2022-10-16T05:32:11;14.47;;;12.60;;
6834;SDS011;3455;42.150;24.734;2022-10-16T05:34:38;13.63;;;12.13;;
6834;SDS011;3455;42.150;24.734;2022-10-16T05:37:06;15.50;;;13.00;;
6834;SDS011;3455;42.150;24.734;2022-10-16T05:39:33;21.63;;;14.83;;
6834;SDS011;3455;42.150;24.734;2022-10-16T05:42:01;14.97;;;11.93;;
6834;SDS011;3455;42.150;24.734;2022-10-16T05:44:28;11.60;;;10.50;;
6834;SDS011;3455;42.150;24.734;2022-10-16T05:46:55;10.83;;;9.73;;
6834;SDS011;3455;42.150;24.734;2022-10-16T05:49:22;10.27;;;9.23;;
6834;SDS011;3455;42.150;24.734;2022-10-16T05:51:48;9.10;;;7.93;;
6834;SDS011;3455;42.150;24.734;2022-10-16T05:54:17;7.20;;;6.63;;
6834;SDS011;3455;42.150;24.734;2022-10-16T05:56:43;7.43;;;6.57;;
6834;SDS011;3455;42.150;24.734;2022-10-16T05:59:10;6.20;;;5.60;;
6834;SDS011;3455;42.150;24.734;2022-10-16T06:01:37;6.37;;;5.97;;
6834;SDS011;3455;42.150;24.734;2022-10-16T06:04:04;7.33;;;5.40;;
6834;SDS011;3455;42.150;24.734;2022-10-16T06:06:30;4.93;;;4.53;;
6834;SDS011;3455;42.150;24.734;2022-10-16T06:08:57;5.00;;;4.70;;
6834;SDS011;3455;42.150;24.734;2022-10-16T06:11:26;6.73;;;5.60;;
6834;SDS011;3455;42.150;24.734;2022-10-16T06:13:55;5.40;;;4.93;;
6834;SDS011;3455;42.150;24.734;2022-10-16T06:16:23;5.57;;;4.70;;
6834;SDS011;3455;42.150;24.734;2022-10-16T06:18:51;5.87;;;5.47;;
6834;SDS011;3455;42.150;24.734;2022-10-16T06:21:18;5.25;;;4.75;;
6834;SDS011;3455;42.150;24.734;2022-10-16T06:23:47;5.72;;;5.38;;
6834;SDS011;3455;42.150;24.734;2022-10-16T06:26:14;6.30;;;5.60;;
6834;SDS011;3455;42.150;24.734;2022-10-16T06:28:45;6.88;;;5.68;;
6834;SDS011;3455;42.150;24.734;2022-10-16T06:31:12;5.63;;;5.13;;
6834;SDS011;3455;42.150;24.734;2022-10-16T06:33:39;11.20;;;5.88;;
6834;SDS011;3455;42.150;24.734;2022-10-16T06:36:06;6.38;;;5.75;;
6834;SDS011;3455;42.150;24.734;2022-10-16T06:38:34;6.65;;;6.07;;
6834;SDS011;3455;42.150;24.734;2022-10-16T06:41:02;9.90;;;6.60;;
6834;SDS011;3455;42.150;24.734;2022-10-16T06:43:29;6.18;;;5.60;;
6834;SDS011;3455;42.150;24.734;2022-10-16T06:45:59;9.68;;;6.05;;
6834;SDS011;3455;42.150;24.734;2022-10-16T06:48:26;5.85;;;5.45;;
6834;SDS011;3455;42.150;24.734;2022-10-16T06:50:57;6.93;;;5.88;;
6834;SDS011;3455;42.150;24.734;2022-10-16T06:53:26;6.60;;;5.85;;
6834;SDS011;3455;42.150;24.734;2022-10-16T06:55:54;5.82;;;5.38;;
6834;SDS011;3455;42.150;24.734;2022-10-16T06:58:22;6.60;;;5.93;;
6834;SDS011;3455;42.150;24.734;2022-10-16T07:00:54;6.03;;;5.43;;
6834;SDS011;3455;42.150;24.734;2022-10-16T07:03:23;6.22;;;5.53;;
6834;SDS011;3455;42.150;24.734;2022-10-16T07:05:50;8.13;;;5.75;;
6834;SDS011;3455;42.150;24.734;2022-10-16T07:08:17;5.35;;;4.97;;
6834;SDS011;3455;42.150;24.734;2022-10-16T07:10:44;5.78;;;5.28;;
6834;SDS011;3455;42.150;24.734;2022-10-16T07:13:11;7.38;;;5.13;;
6834;SDS011;3455;42.150;24.734;2022-10-16T07:15:39;5.32;;;4.90;;
6834;SDS011;3455;42.150;24.734;2022-10-16T07:18:07;6.57;;;5.28;;
6834;SDS011;3455;42.150;24.734;2022-10-16T07:20:35;7.70;;;5.43;;
6834;SDS011;3455;42.150;24.734;2022-10-16T07:23:02;5.95;;;5.32;;
6834;SDS011;3455;42.150;24.734;2022-10-16T07:25:29;8.88;;;5.57;;
6834;SDS011;3455;42.150;24.734;2022-10-16T07:27:56;7.40;;;5.50;;
6834;SDS011;3455;42.150;24.734;2022-10-16T07:30:23;5.47;;;4.90;;
6834;SDS011;3455;42.150;24.734;2022-10-16T07:32:50;6.10;;;5.57;;
6834;SDS011;3455;42.150;24.734;2022-10-16T07:35:25;6.13;;;5.50;;
6834;SDS011;3455;42.150;24.734;2022-10-16T07:37:56;6.10;;;5.45;;
6834;SDS011;3455;42.150;24.734;2022-10-16T07:40:23;6.03;;;5.45;;
6834;SDS011;3455;42.150;24.734;2022-10-16T07:42:52;7.53;;;5.40;;
6834;SDS011;3455;42.150;24.734;2022-10-16T07:45:18;5.82;;;5.50;;
6834;SDS011;3455;42.150;24.734;2022-10-16T07:47:45;5.70;;;5.40;;
6834;SDS011;3455;42.150;24.734;2022-10-16T07:50:12;7.05;;;5.30;;
6834;SDS011;3455;42.150;24.734;2022-10-16T07:52:39;6.50;;;5.15;;
6834;SDS011;3455;42.150;24.734;2022-10-16T07:55:08;5.63;;;5.25;;
6834;SDS011;3455;42.150;24.734;2022-10-16T07:57:34;6.35;;;5.75;;
6834;SDS011;3455;42.150;24.734;2022-10-16T08:00:01;6.43;;;5.95;;
6834;SDS011;3455;42.150;24.734;2022-10-16T08:02:28;6.70;;;5.85;;
6834;SDS011;3455;42.150;24.734;2022-10-16T08:04:55;5.05;;;4.63;;
6834;SDS011;3455;42.150;24.734;2022-10-16T08:07:22;6.38;;;4.95;;
6834;SDS011;3455;42.150;24.734;2022-10-16T08:09:49;5.82;;;5.43;;
6834;SDS011;3455;42.150;24.734;2022-10-16T08:12:17;6.68;;;6.03;;
6834;SDS011;3455;42.150;24.734;2022-10-16T08:14:44;6.00;;;5.40;;
6834;SDS011;3455;42.150;24.734;2022-10-16T08:17:13;5.75;;;5.20;;
6834;SDS011;3455;42.150;24.734;2022-10-16T08:19:43;7.72;;;4.88;;
6834;SDS011;3455;42.150;24.734;2022-10-16T08:22:11;5.78;;;5.28;;
6834;SDS011;3455;42.150;24.734;2022-10-16T08:24:38;6.40;;;4.72;;
6834;SDS011;3455;42.150;24.734;2022-10-16T08:27:04;5.22;;;4.93;;
6834;SDS011;3455;42.150;24.734;2022-10-16T08:29:33;5.57;;;4.68;;
6834;SDS011;3455;42.150;24.734;2022-10-16T08:32:00;5.75;;;5.30;;
6834;SDS011;3455;42.150;24.734;2022-10-16T08:34:27;6.38;;;4.90;;
6834;SDS011;3455;42.150;24.734;2022-10-16T08:36:53;4.85;;;4.50;;
6834;SDS011;3455;42.150;24.734;2022-10-16T08:39:20;4.82;;;4.43;;
6834;SDS011;3455;42.150;24.734;2022-10-16T08:41:59;4.97;;;4.65;;
6834;SDS011;3455;42.150;24.734;2022-10-16T08:44:47;5.63;;;5.20;;
6834;SDS011;3455;42.150;24.734;2022-10-16T08:47:31;4.22;;;3.92;;
6834;SDS011;3455;42.150;24.734;2022-10-16T08:50:10;4.72;;;4.38;;
6834;SDS011;3455;42.150;24.734;2022-10-16T08:52:40;6.45;;;4.93;;
6834;SDS011;3455;42.150;24.734;2022-10-16T08:55:10;5.22;;;3.60;;
6834;SDS011;3455;42.150;24.734;2022-10-16T08:57:49;4.93;;;4.57;;
6834;SDS011;3455;42.150;24.734;2022-10-16T09:00:17;4.57;;;4.20;;
6834;SDS011;3455;42.150;24.734;2022-10-16T09:02:45;4.30;;;4.10;;
6834;SDS011;3455;42.150;24.734;2022-10-16T09:05:21;4.35;;;4.05;;
6834;SDS011;3455;42.150;24.734;2022-10-16T09:08:01;4.57;;;4.18;;
6834;SDS011;3455;42.150;24.734;2022-10-16T09:10:38;8.15;;;4.30;;
6834;SDS011;3455;42.150;24.734;2022-10-16T09:13:17;4.28;;;3.88;;
6834;SDS011;3455;42.150;24.734;2022-10-16T09:15:52;4.30;;;4.00;;
6834;SDS011;3455;42.150;24.734;2022-10-16T09:18:29;4.50;;;4.30;;
6834;SDS011;3455;42.150;24.734;2022-10-16T09:21:05;4.07;;;3.78;;
6834;SDS011;3455;42.150;24.734;2022-10-16T09:23:41;4.60;;;4.20;;
6834;SDS011;3455;42.150;24.734;2022-10-16T09:26:31;4.28;;;3.78;;
6834;SDS011;3455;42.150;24.734;2022-10-16T09:28:58;3.92;;;3.58;;
6834;SDS011;3455;42.150;24.734;2022-10-16T09:31:26;4.10;;;3.80;;
6834;SDS011;3455;42.150;24.734;2022-10-16T09:33:53;3.35;;;3.15;;
6834;SDS011;3455;42.150;24.734;2022-10-16T09:36:24;3.72;;;3.42;;
6834;SDS011;3455;42.150;24.734;2022-10-16T09:39:01;3.50;;;3.30;;
6834;SDS011;3455;42.150;24.734;2022-10-16T09:41:30;4.40;;;4.00;;
6834;SDS011;3455;42.150;24.734;2022-10-16T09:44:00;5.97;;;3.92;;
6834;SDS011;3455;42.150;24.734;2022-10-16T09:46:31;6.93;;;3.58;;
6834;SDS011;3455;42.150;24.734;2022-10-16T09:49:00;3.75;;;3.22;;
6834;SDS011;3455;42.150;24.734;2022-10-16T09:51:28;3.78;;;3.47;;
6834;SDS011;3455;42.150;24.734;2022-10-16T09:53:57;4.53;;;3.85;;
6834;SDS011;3455;42.150;24.734;2022-10-16T09:56:27;5.03;;;4.00;;
6834;SDS011;3455;42.150;24.734;2022-10-16T09:58:55;4.30;;;3.47;;
6834;SDS011;3455;42.150;24.734;2022-10-16T10:01:24;4.00;;;3.13;;
6834;SDS011;3455;42.150;24.734;2022-10-16T10:03:58;3.50;;;3.30;;
6834;SDS011;3455;42.150;24.734;2022-10-16T10:06:29;3.70;;;3.50;;
6834;SDS011;3455;42.150;24.734;2022-10-16T10:08:58;4.50;;;3.25;;
6834;SDS011;3455;42.150;24.734;2022-10-16T10:11:41;3.30;;;3.03;;
6834;SDS011;3455;42.150;24.734;2022-10-16T10:14:16;4.00;;;3.00;;
6834;SDS011;3455;42.150;24.734;2022-10-16T10:16:50;3.25;;;3.05;;
6834;SDS011;3455;42.150;24.734;2022-10-16T10:19:18;4.07;;;3.67;;
6834;SDS011;3455;42.150;24.734;2022-10-16T10:21:47;5.55;;;3.20;;
6834;SDS011;3455;42.150;24.734;2022-10-16T10:24:15;3.30;;;3.10;;
6834;SDS011;3455;42.150;24.734;2022-10-16T10:26:47;5.38;;;3.80;;
6834;SDS011;3455;42.150;24.734;2022-10-16T10:29:24;3.42;;;3.22;;
6834;SDS011;3455;42.150;24.734;2022-10-16T10:32:12;3.45;;;3.22;;
6834;SDS011;3455;42.150;24.734;2022-10-16T10:34:56;3.38;;;3.17;;
6834;SDS011;3455;42.150;24.734;2022-10-16T10:37:35;3.78;;;3.47;;
6834;SDS011;3455;42.150;24.734;2022-10-16T10:40:15;3.55;;;3.25;;
6834;SDS011;3455;42.150;24.734;2022-10-16T10:42:51;3.60;;;3.30;;
6834;SDS011;3455;42.150;24.734;2022-10-16T10:45:25;2.92;;;2.72;;
6834;SDS011;3455;42.150;24.734;2022-10-16T10:47:59;3.22;;;3.03;;
6834;SDS011;3455;42.150;24.734;2022-10-16T10:50:39;3.67;;;3.38;;
6834;SDS011;3455;42.150;24.734;2022-10-16T10:53:11;3.25;;;2.92;;
6834;SDS011;3455;42.150;24.734;2022-10-16T10:55:52;3.90;;;3.60;;
6834;SDS011;3455;42.150;24.734;2022-10-16T10:58:39;3.65;;;3.25;;
6834;SDS011;3455;42.150;24.734;2022-10-16T11:01:30;6.20;;;3.35;;
6834;SDS011;3455;42.150;24.734;2022-10-16T11:04:11;3.35;;;3.08;;
6834;SDS011;3455;42.150;24.734;2022-10-16T11:06:52;12.73;;;3.95;;
6834;SDS011;3455;42.150;24.734;2022-10-16T11:09:23;5.85;;;3.45;;
6834;SDS011;3455;42.150;24.734;2022-10-16T11:11:54;5.53;;;3.42;;
6834;SDS011;3455;42.150;24.734;2022-10-16T11:14:27;3.70;;;3.50;;
6834;SDS011;3455;42.150;24.734;2022-10-16T11:16:59;3.92;;;3.15;;
6834;SDS011;3455;42.150;24.734;2022-10-16T11:19:37;3.10;;;2.95;;
6834;SDS011;3455;42.150;24.734;2022-10-16T11:22:09;5.03;;;4.03;;
6834;SDS011;3455;42.150;24.734;2022-10-16T11:24:45;4.10;;;2.83;;
6834;SDS011;3455;42.150;24.734;2022-10-16T11:27:15;4.13;;;3.20;;
6834;SDS011;3455;42.150;24.734;2022-10-16T11:29:47;3.00;;;2.72;;
6834;SDS011;3455;42.150;24.734;2022-10-16T11:32:20;4.05;;;3.35;;
6834;SDS011;3455;42.150;24.734;2022-10-16T11:34:53;3.40;;;3.10;;
6834;SDS011;3455;42.150;24.734;2022-10-16T11:37:27;13.88;;;4.47;;
6834;SDS011;3455;42.150;24.734;2022-10-16T11:40:04;3.55;;;3.35;;
6834;SDS011;3455;42.150;24.734;2022-10-16T11:42:44;3.05;;;2.80;;
6834;SDS011;3455;42.150;24.734;2022-10-16T11:45:22;4.13;;;2.95;;
6834;SDS011;3455;42.150;24.734;2022-10-16T11:47:54;3.60;;;3.13;;
6834;SDS011;3455;42.150;24.734;2022-10-16T11:50:31;4.35;;;2.90;;
6834;SDS011;3455;42.150;24.734;2022-10-16T11:53:01;3.67;;;3.38;;
6834;SDS011;3455;42.150;24.734;2022-10-16T11:55:36;7.82;;;3.22;;
6834;SDS011;3455;42.150;24.734;2022-10-16T11:58:05;3.35;;;3.05;;
6834;SDS011;3455;42.150;24.734;2022-10-16T12:00:39;3.70;;;3.50;;
6834;SDS011;3455;42.150;24.734;2022-10-16T12:03:15;3.63;;;2.88;;
6834;SDS011;3455;42.150;24.734;2022-10-16T12:06:01;3.58;;;3.38;;
6834;SDS011;3455;42.150;24.734;2022-10-16T12:08:37;3.92;;;3.72;;
6834;SDS011;3455;42.150;24.734;2022-10-16T12:11:09;3.38;;;3.17;;
6834;SDS011;3455;42.150;24.734;2022-10-16T12:13:48;4.78;;;3.17;;
6834;SDS011;3455;42.150;24.734;2022-10-16T12:16:22;5.70;;;3.67;;
6834;SDS011;3455;42.150;24.734;2022-10-16T12:18:49;3.35;;;3.15;;
6834;SDS011;3455;42.150;24.734;2022-10-16T12:21:36;3.53;;;3.33;;
6834;SDS011;3455;42.150;24.734;2022-10-16T12:24:04;3.95;;;3.22;;
6834;SDS011;3455;42.150;24.734;2022-10-16T12:26:32;3.80;;;3.60;;
6834;SDS011;3455;42.150;24.734;2022-10-16T12:29:13;7.25;;;3.67;;
6834;SDS011;3455;42.150;24.734;2022-10-16T12:31:49;3.17;;;2.97;;
6834;SDS011;3455;42.150;24.734;2022-10-16T12:34:20;3.53;;;3.20;;
6834;SDS011;3455;42.150;24.734;2022-10-16T12:36:51;3.28;;;3.00;;
6834;SDS011;3455;42.150;24.734;2022-10-16T12:39:21;4.28;;;3.92;;
6834;SDS011;3455;42.150;24.734;2022-10-16T12:42:00;29.67;;;5.30;;
6834;SDS011;3455;42.150;24.734;2022-10-16T12:44:31;5.85;;;4.05;;
6834;SDS011;3455;42.150;24.734;2022-10-16T12:46:59;4.20;;;3.85;;
6834;SDS011;3455;42.150;24.734;2022-10-16T12:49:30;7.60;;;4.10;;
6834;SDS011;3455;42.150;24.734;2022-10-16T12:52:00;4.93;;;4.63;;
6834;SDS011;3455;42.150;24.734;2022-10-16T12:54:27;5.18;;;4.82;;
6834;SDS011;3455;42.150;24.734;2022-10-16T12:57:00;4.35;;;4.10;;
6834;SDS011;3455;42.150;24.734;2022-10-16T12:59:38;7.97;;;5.00;;
6834;SDS011;3455;42.150;24.734;2022-10-16T13:02:29;5.82;;;4.55;;
6834;SDS011;3455;42.150;24.734;2022-10-16T13:05:21;5.30;;;4.60;;
6834;SDS011;3455;42.150;24.734;2022-10-16T13:07:59;4.75;;;4.45;;
6834;SDS011;3455;42.150;24.734;2022-10-16T13:10:44;7.50;;;4.90;;
6834;SDS011;3455;42.150;24.734;2022-10-16T13:13:28;4.53;;;4.13;;
6834;SDS011;3455;42.150;24.734;2022-10-16T13:16:08;4.15;;;3.85;;
6834;SDS011;3455;42.150;24.734;2022-10-16T13:18:48;5.20;;;4.60;;
6834;SDS011;3455;42.150;24.734;2022-10-16T13:21:29;19.25;;;6.85;;
6834;SDS011;3455;42.150;24.734;2022-10-16T13:24:09;7.28;;;6.72;;
6834;SDS011;3455;42.150;24.734;2022-10-16T13:26:45;5.88;;;5.35;;
6834;SDS011;3455;42.150;24.734;2022-10-16T13:29:19;5.80;;;4.88;;
6834;SDS011;3455;42.150;24.734;2022-10-16T13:31:46;4.30;;;3.85;;
6834;SDS011;3455;42.150;24.734;2022-10-16T13:34:14;4.18;;;3.88;;
6834;SDS011;3455;42.150;24.734;2022-10-16T13:36:44;3.83;;;3.58;;
6834;SDS011;3455;42.150;24.734;2022-10-16T13:39:21;4.60;;;4.30;;
6834;SDS011;3455;42.150;24.734;2022-10-16T13:42:02;4.38;;;4.07;;
6834;SDS011;3455;42.150;24.734;2022-10-16T13:44:34;5.75;;;4.05;;
6834;SDS011;3455;42.150;24.734;2022-10-16T13:47:05;4.68;;;4.25;;
6834;SDS011;3455;42.150;24.734;2022-10-16T13:49:41;4.32;;;4.00;;
6834;SDS011;3455;42.150;24.734;2022-10-16T13:52:15;5.10;;;4.70;;
6834;SDS011;3455;42.150;24.734;2022-10-16T13:54:45;4.28;;;3.97;;
6834;SDS011;3455;42.150;24.734;2022-10-16T13:57:13;5.38;;;4.50;;
6834;SDS011;3455;42.150;24.734;2022-10-16T13:59:41;4.82;;;4.53;;
6834;SDS011;3455;42.150;24.734;2022-10-16T14:02:10;6.30;;;5.63;;
6834;SDS011;3455;42.150;24.734;2022-10-16T14:04:45;6.75;;;4.00;;
6834;SDS011;3455;42.150;24.734;2022-10-16T14:07:14;5.00;;;4.70;;
6834;SDS011;3455;42.150;24.734;2022-10-16T14:09:47;4.85;;;4.40;;
6834;SDS011;3455;42.150;24.734;2022-10-16T14:12:14;4.82;;;4.43;;
6834;SDS011;3455;42.150;24.734;2022-10-16T14:14:42;6.60;;;4.20;;
6834;SDS011;3455;42.150;24.734;2022-10-16T14:17:14;5.30;;;3.97;;
6834;SDS011;3455;42.150;24.734;2022-10-16T14:19:45;4.50;;;4.20;;
6834;SDS011;3455;42.150;24.734;2022-10-16T14:22:21;4.57;;;4.05;;
6834;SDS011;3455;42.150;24.734;2022-10-16T14:24:55;4.63;;;4.32;;
6834;SDS011;3455;42.150;24.734;2022-10-16T14:27:28;7.47;;;4.43;;
6834;SDS011;3455;42.150;24.734;2022-10-16T14:30:13;5.72;;;5.13;;
6834;SDS011;3455;42.150;24.734;2022-10-16T14:32:42;7.53;;;4.50;;
6834;SDS011;3455;42.150;24.734;2022-10-16T14:35:24;5.40;;;4.85;;
6834;SDS011;3455;42.150;24.734;2022-10-16T14:37:53;4.82;;;4.43;;
6834;SDS011;3455;42.150;24.734;2022-10-16T14:40:24;6.20;;;4.85;;
6834;SDS011;3455;42.150;24.734;2022-10-16T14:42:52;7.10;;;4.43;;
6834;SDS011;3455;42.150;24.734;2022-10-16T14:45:20;6.35;;;5.82;;
6834;SDS011;3455;42.150;24.734;2022-10-16T14:47:49;4.97;;;4.68;;
6834;SDS011;3455;42.150;24.734;2022-10-16T14:50:18;5.82;;;4.72;;
6834;SDS011;3455;42.150;24.734;2022-10-16T14:52:45;5.32;;;4.80;;
6834;SDS011;3455;42.150;24.734;2022-10-16T14:55:12;5.50;;;4.88;;
6834;SDS011;3455;42.150;24.734;2022-10-16T14:57:40;6.32;;;4.40;;
6834;SDS011;3455;42.150;24.734;2022-10-16T15:00:10;4.57;;;4.30;;
6834;SDS011;3455;42.150;24.734;2022-10-16T15:02:42;9.10;;;4.55;;
6834;SDS011;3455;42.150;24.734;2022-10-16T15:05:11;5.72;;;4.60;;
6834;SDS011;3455;42.150;24.734;2022-10-16T15:07:41;6.93;;;5.47;;
6834;SDS011;3455;42.150;24.734;2022-10-16T15:10:08;6.00;;;4.95;;
6834;SDS011;3455;42.150;24.734;2022-10-16T15:12:35;11.57;;;7.35;;
6834;SDS011;3455;42.150;24.734;2022-10-16T15:15:05;5.40;;;4.63;;